Wetterdaten: Donnerstag, 25.07.2013
Datum Zeit Temperatur Luftfeuchte Luftdruck Regen Wind Richtung Richtung Taupunkt Windchill Windben
25.07.2013 00:00 16,2 C 93 % 1022,1 hPa 0,0 l/m 0,5 km/h (0 Bft) S-SW 202 15,1 C 16,1 C 2,3 km/h (1 Bft)
25.07.2013 00:05 16,1 C 93 % 1022,1 hPa 0,0 l/m 1,0 km/h (0 Bft) S 180 15,0 C 16,1 C 3,7 km/h (1 Bft)
25.07.2013 00:10 16,1 C 93 % 1022,1 hPa 0,0 l/m 1,0 km/h (0 Bft) O-SO 112 15,0 C 16,1 C 0,0 km/h (0 Bft)
25.07.2013 00:15 16,1 C 93 % 1022,1 hPa 0,0 l/m 0,8 km/h (0 Bft) N-NO 22 15,0 C 16,1 C 2,6 km/h (1 Bft)
25.07.2013 00:20 16,1 C 93 % 1022,1 hPa 0,0 l/m 0,6 km/h (0 Bft) S 180 15,0 C 16,1 C 4,0 km/h (1 Bft)
25.07.2013 00:25 16,1 C 93 % 1022,3 hPa 0,0 l/m 0,6 km/h (0 Bft) W-SW 247 15,0 C 16,1 C 0,0 km/h (0 Bft)
25.07.2013 00:30 15,9 C 94 % 1022,3 hPa 0,0 l/m 0,2 km/h (0 Bft) S 180 14,9 C 16,0 C 0,0 km/h (0 Bft)
25.07.2013 00:35 15,9 C 94 % 1022,3 hPa 0,0 l/m 0,2 km/h (0 Bft) SO 135 14,9 C 16,0 C 1,8 km/h (1 Bft)
25.07.2013 00:40 15,9 C 94 % 1022,3 hPa 0,0 l/m 0,5 km/h (0 Bft) SO 135 14,9 C 15,9 C 1,6 km/h (1 Bft)
25.07.2013 00:45 15,9 C 94 % 1022,2 hPa 0,0 l/m 0,5 km/h (0 Bft) O-NO 67 14,9 C 16,0 C 1,8 km/h (1 Bft)
25.07.2013 00:50 15,8 C 94 % 1022,2 hPa 0,0 l/m 0,2 km/h (0 Bft) S-SW 202 14,8 C 15,8 C 0,0 km/h (0 Bft)
25.07.2013 00:55 15,7 C 94 % 1022,2 hPa 0,0 l/m 0,0 km/h (0 Bft) O-NO 67 14,7 C 15,7 C 0,0 km/h (0 Bft)
25.07.2013 01:00 15,4 C 94 % 1022,2 hPa 0,0 l/m 0,0 km/h (0 Bft) NO 45 14,4 C 15,4 C 0,0 km/h (0 Bft)
25.07.2013 01:05 15,3 C 94 % 1022,1 hPa 0,0 l/m 0,0 km/h (0 Bft) S 180 14,3 C 15,3 C 2,1 km/h (1 Bft)
25.07.2013 01:10 15,1 C 94 % 1022,1 hPa 0,0 l/m 0,2 km/h (0 Bft) S-SO 157 14,1 C 15,1 C 0,0 km/h (0 Bft)
25.07.2013 01:15 15,0 C 94 % 1022,1 hPa 0,0 l/m 0,5 km/h (0 Bft) SO 135 14,0 C 15,0 C 0,0 km/h (0 Bft)
25.07.2013 01:20 15,0 C 94 % 1022,1 hPa 0,0 l/m 0,3 km/h (0 Bft) O-SO 112 14,0 C 14,9 C 0,0 km/h (0 Bft)
25.07.2013 01:25 15,0 C 94 % 1022,1 hPa 0,0 l/m 0,3 km/h (0 Bft) O-SO 112 14,0 C 14,9 C 0,0 km/h (0 Bft)
25.07.2013 01:30 15,0 C 94 % 1022,1 hPa 0,0 l/m 0,2 km/h (0 Bft) S 180 14,0 C 14,8 C 0,0 km/h (0 Bft)
25.07.2013 01:35 14,9 C 94 % 1022,1 hPa 0,0 l/m 0,2 km/h (0 Bft) SO 135 13,9 C 14,7 C 0,0 km/h (0 Bft)
25.07.2013 01:40 15,0 C 94 % 1022,1 hPa 0,0 l/m 0,5 km/h (0 Bft) O-SO 112 14,0 C 14,7 C 2,3 km/h (1 Bft)
25.07.2013 01:45 15,0 C 94 % 1021,9 hPa 0,0 l/m 0,8 km/h (0 Bft) O-SO 112 14,0 C 14,7 C 2,7 km/h (1 Bft)
25.07.2013 01:50 14,8 C 94 % 1021,9 hPa 0,0 l/m 1,0 km/h (0 Bft) O-SO 112 13,8 C 14,7 C 0,0 km/h (0 Bft)
25.07.2013 01:55 14,7 C 94 % 1021,9 hPa 0,0 l/m 0,8 km/h (0 Bft) O 90 13,7 C 14,6 C 0,0 km/h (0 Bft)
25.07.2013 02:00 14,6 C 94 % 1021,9 hPa 0,0 l/m 0,3 km/h (0 Bft) NO 45 13,6 C 14,6 C 0,0 km/h (0 Bft)
25.07.2013 02:05 14,5 C 94 % 1021,9 hPa 0,0 l/m 0,2 km/h (0 Bft) S-SW 202 13,5 C 14,6 C 0,0 km/h (0 Bft)
25.07.2013 02:10 14,5 C 94 % 1021,9 hPa 0,0 l/m 0,2 km/h (0 Bft) SW 225 13,5 C 14,4 C 2,1 km/h (1 Bft)
25.07.2013 02:15 14,5 C 94 % 1021,9 hPa 0,0 l/m 0,0 km/h (0 Bft) W-NW 292 13,5 C 14,4 C 0,0 km/h (0 Bft)
25.07.2013 02:20 14,4 C 94 % 1021,9 hPa 0,0 l/m 0,2 km/h (0 Bft) SW 225 13,4 C 14,4 C 0,0 km/h (0 Bft)
25.07.2013 02:25 14,4 C 94 % 1021,8 hPa 0,0 l/m 0,2 km/h (0 Bft) W-SW 247 13,4 C 14,3 C 0,0 km/h (0 Bft)
25.07.2013 02:30 14,3 C 94 % 1021,8 hPa 0,0 l/m 0,0 km/h (0 Bft) W-SW 247 13,3 C 14,2 C 0,0 km/h (0 Bft)
25.07.2013 02:35 14,3 C 94 % 1021,8 hPa 0,0 l/m 0,0 km/h (0 Bft) SW 225 13,3 C 14,1 C 0,0 km/h (0 Bft)
25.07.2013 02:40 14,3 C 94 % 1021,8 hPa 0,0 l/m 0,0 km/h (0 Bft) SW 225 13,3 C 14,1 C 0,0 km/h (0 Bft)
25.07.2013 02:45 14,2 C 94 % 1021,8 hPa 0,0 l/m 0,0 km/h (0 Bft) W-SW 247 13,2 C 14,0 C 0,0 km/h (0 Bft)
25.07.2013 02:50 14,2 C 94 % 1021,8 hPa 0,0 l/m 0,0 km/h (0 Bft) NO 45 13,2 C 14,0 C 0,0 km/h (0 Bft)
25.07.2013 02:55 14,2 C 94 % 1021,8 hPa 0,0 l/m 0,2 km/h (0 Bft) O-NO 67 13,2 C 14,0 C 1,8 km/h (1 Bft)
25.07.2013 03:00 14,1 C 94 % 1021,8 hPa 0,0 l/m 0,0 km/h (0 Bft) W-SW 247 13,1 C 14,0 C 0,0 km/h (0 Bft)
25.07.2013 03:05 14,1 C 94 % 1021,6 hPa 0,0 l/m 0,2 km/h (0 Bft) W-SW 247 13,1 C 13,9 C 0,0 km/h (0 Bft)
25.07.2013 03:10 14,1 C 94 % 1021,6 hPa 0,0 l/m 0,0 km/h (0 Bft) SO 135 13,1 C 13,9 C 0,0 km/h (0 Bft)
25.07.2013 03:15 14,0 C 94 % 1021,6 hPa 0,0 l/m 0,0 km/h (0 Bft) S 180 13,0 C 13,9 C 0,0 km/h (0 Bft)
25.07.2013 03:20 13,9 C 95 % 1021,6 hPa 0,0 l/m 0,0 km/h (0 Bft) SW 225 13,1 C 13,9 C 0,0 km/h (0 Bft)
25.07.2013 03:25 14,0 C 94 % 1021,6 hPa 0,0 l/m 0,0 km/h (0 Bft) W-SW 247 13,0 C 13,9 C 0,0 km/h (0 Bft)
25.07.2013 03:30 13,9 C 95 % 1021,6 hPa 0,0 l/m 0,2 km/h (0 Bft) SO 135 13,1 C 13,9 C 0,0 km/h (0 Bft)
25.07.2013 03:35 13,8 C 95 % 1021,6 hPa 0,0 l/m 0,2 km/h (0 Bft) SO 135 13,0 C 13,8 C 0,0 km/h (0 Bft)
25.07.2013 03:40 13,9 C 95 % 1021,6 hPa 0,0 l/m 0,0 km/h (0 Bft) S-SW 202 13,1 C 13,9 C 0,0 km/h (0 Bft)
25.07.2013 03:45 14,0 C 94 % 1021,6 hPa 0,0 l/m 0,2 km/h (0 Bft) SO 135 13,0 C 13,8 C 1,9 km/h (1 Bft)
25.07.2013 03:50 13,9 C 95 % 1021,6 hPa 0,0 l/m 0,6 km/h (0 Bft) O 90 13,1 C 13,8 C 2,4 km/h (1 Bft)
25.07.2013 03:55 13,9 C 95 % 1021,6 hPa 0,0 l/m 1,0 km/h (0 Bft) W-SW 247 13,1 C 13,8 C 2,7 km/h (1 Bft)
25.07.2013 04:00 13,7 C 95 % 1021,6 hPa 0,0 l/m 0,6 km/h (0 Bft) W-SW 247 12,9 C 13,8 C 0,0 km/h (0 Bft)
25.07.2013 04:05 13,7 C 95 % 1021,4 hPa 0,0 l/m 0,2 km/h (0 Bft) W-SW 247 12,9 C 13,7 C 0,0 km/h (0 Bft)
25.07.2013 04:10 13,4 C 95 % 1021,4 hPa 0,0 l/m 0,0 km/h (0 Bft) S 180 12,6 C 13,5 C 0,0 km/h (0 Bft)
25.07.2013 04:15 13,5 C 95 % 1021,4 hPa 0,0 l/m 0,2 km/h (0 Bft) S-SW 202 12,7 C 13,6 C 2,1 km/h (1 Bft)
25.07.2013 04:20 13,7 C 95 % 1021,4 hPa 0,0 l/m 0,8 km/h (0 Bft) NO 45 12,9 C 13,7 C 3,9 km/h (1 Bft)
25.07.2013 04:25 13,7 C 95 % 1021,4 hPa 0,0 l/m 1,0 km/h (0 Bft) W-SW 247 12,9 C 13,8 C 1,9 km/h (1 Bft)
25.07.2013 04:30 13,7 C 95 % 1021,4 hPa 0,0 l/m 0,3 km/h (0 Bft) SW 225 12,9 C 13,7 C 0,0 km/h (0 Bft)
25.07.2013 04:35 13,5 C 95 % 1021,4 hPa 0,0 l/m 0,2 km/h (0 Bft) SW 225 12,7 C 13,6 C 0,0 km/h (0 Bft)
25.07.2013 04:40 13,5 C 95 % 1021,4 hPa 0,0 l/m 0,2 km/h (0 Bft) S-SW 202 12,7 C 13,5 C 0,0 km/h (0 Bft)
25.07.2013 04:45 13,5 C 95 % 1021,5 hPa 0,0 l/m 0,2 km/h (0 Bft) W-SW 247 12,7 C 13,4 C 0,0 km/h (0 Bft)
25.07.2013 04:50 13,4 C 95 % 1021,5 hPa 0,0 l/m 0,0 km/h (0 Bft) SW 225 12,6 C 13,4 C 0,0 km/h (0 Bft)
25.07.2013 04:55 13,3 C 95 % 1021,5 hPa 0,0 l/m 0,0 km/h (0 Bft) W-NW 292 12,5 C 13,2 C 0,0 km/h (0 Bft)
25.07.2013 05:00 13,1 C 95 % 1021,5 hPa 0,0 l/m 0,0 km/h (0 Bft) W-SW 247 12,3 C 13,1 C 0,0 km/h (0 Bft)
25.07.2013 05:05 13,1 C 95 % 1021,6 hPa 0,0 l/m 0,0 km/h (0 Bft) W-SW 247 12,3 C 12,9 C 0,0 km/h (0 Bft)
25.07.2013 05:10 13,0 C 95 % 1021,6 hPa 0,0 l/m 0,0 km/h (0 Bft) S 180 12,2 C 12,9 C 1,8 km/h (1 Bft)
25.07.2013 05:15 13,1 C 95 % 1021,6 hPa 0,0 l/m 0,0 km/h (0 Bft) S-SW 202 12,3 C 13,0 C 1,8 km/h (1 Bft)
25.07.2013 05:20 13,1 C 95 % 1021,6 hPa 0,0 l/m 0,5 km/h (0 Bft) W-SW 247 12,3 C 13,1 C 2,9 km/h (1 Bft)
25.07.2013 05:25 13,0 C 95 % 1021,4 hPa 0,0 l/m 0,6 km/h (0 Bft) S-SW 202 12,2 C 13,1 C 0,0 km/h (0 Bft)
25.07.2013 05:30 13,0 C 95 % 1021,4 hPa 0,0 l/m 0,6 km/h (0 Bft) W-SW 247 12,2 C 13,0 C 0,0 km/h (0 Bft)
25.07.2013 05:35 13,1 C 95 % 1021,4 hPa 0,0 l/m 0,8 km/h (0 Bft) SW 225 12,3 C 13,1 C 2,4 km/h (1 Bft)
25.07.2013 05:40 13,2 C 95 % 1021,4 hPa 0,0 l/m 0,6 km/h (0 Bft) S-SW 202 12,4 C 13,1 C 0,0 km/h (0 Bft)
25.07.2013 05:45 13,3 C 95 % 1021,4 hPa 0,0 l/m 0,2 km/h (0 Bft) N 360 12,5 C 13,1 C 0,0 km/h (0 Bft)
25.07.2013 05:50 13,3 C 95 % 1021,4 hPa 0,0 l/m 0,2 km/h (0 Bft) NO 45 12,5 C 13,1 C 1,8 km/h (1 Bft)
25.07.2013 05:55 13,3 C 95 % 1021,4 hPa 0,0 l/m 0,3 km/h (0 Bft) SO 135 12,5 C 13,1 C 0,0 km/h (0 Bft)
25.07.2013 06:00 13,0 C 95 % 1021,4 hPa 0,0 l/m 0,2 km/h (0 Bft) SO 135 12,2 C 13,0 C 0,0 km/h (0 Bft)
25.07.2013 06:05 13,1 C 95 % 1021,5 hPa 0,0 l/m 0,2 km/h (0 Bft) SO 135 12,3 C 13,0 C 2,1 km/h (1 Bft)
25.07.2013 06:10 13,3 C 95 % 1021,5 hPa 0,0 l/m 0,3 km/h (0 Bft) SO 135 12,5 C 13,1 C 0,0 km/h (0 Bft)
25.07.2013 06:15 13,3 C 95 % 1021,5 hPa 0,0 l/m 0,3 km/h (0 Bft) S-SW 202 12,5 C 13,5 C 0,0 km/h (0 Bft)
25.07.2013 06:20 13,3 C 95 % 1021,5 hPa 0,0 l/m 0,0 km/h (0 Bft) S 180 12,5 C 13,7 C 0,0 km/h (0 Bft)
25.07.2013 06:25 13,4 C 95 % 1021,7 hPa 0,0 l/m 0,0 km/h (0 Bft) O 90 12,6 C 13,5 C 0,0 km/h (0 Bft)
25.07.2013 06:30 14,2 C 95 % 1021,7 hPa 0,0 l/m 0,0 km/h (0 Bft) N-NO 22 13,4 C 13,4 C 0,0 km/h (0 Bft)
25.07.2013 06:35 13,9 C 95 % 1021,7 hPa 0,0 l/m 0,0 km/h (0 Bft) O 90 13,1 C 13,4 C 0,0 km/h (0 Bft)
25.07.2013 06:40 13,6 C 95 % 1021,7 hPa 0,0 l/m 0,2 km/h (0 Bft) NO 45 12,8 C 13,5 C 1,6 km/h (1 Bft)
25.07.2013 06:45 13,8 C 95 % 1021,5 hPa 0,0 l/m 0,2 km/h (0 Bft) O-SO 112 13,0 C 14,4 C 0,0 km/h (0 Bft)
25.07.2013 06:50 15,8 C 94 % 1021,5 hPa 0,0 l/m 0,0 km/h (0 Bft) NO 45 14,8 C 15,6 C 0,0 km/h (0 Bft)
25.07.2013 06:55 16,6 C 93 % 1021,5 hPa 0,0 l/m 0,0 km/h (0 Bft) S-SW 202 15,5 C 16,1 C 0,0 km/h (0 Bft)
25.07.2013 07:00 16,8 C 93 % 1021,5 hPa 0,0 l/m 0,0 km/h (0 Bft) NO 45 15,7 C 16,9 C 0,0 km/h (0 Bft)
25.07.2013 07:05 17,3 C 93 % 1021,7 hPa 0,0 l/m 0,2 km/h (0 Bft) NO 45 16,2 C 17,6 C 1,8 km/h (1 Bft)
25.07.2013 07:10 17,7 C 92 % 1021,7 hPa 0,0 l/m 0,2 km/h (0 Bft) W-SW 247 16,4 C 18,6 C 1,8 km/h (1 Bft)
25.07.2013 07:15 18,6 C 91 % 1021,7 hPa 0,0 l/m 0,2 km/h (0 Bft) NO 45 17,1 C 19,1 C 0,0 km/h (0 Bft)
25.07.2013 07:20 19,3 C 89 % 1021,7 hPa 0,0 l/m 0,3 km/h (0 Bft) NO 45 17,4 C 19,9 C 1,8 km/h (1 Bft)
25.07.2013 07:25 19,6 C 88 % 1021,6 hPa 0,0 l/m 1,1 km/h (1 Bft) W-SW 247 17,6 C 20,1 C 1,6 km/h (1 Bft)
25.07.2013 07:30 19,8 C 84 % 1021,6 hPa 0,0 l/m 1,6 km/h (1 Bft) S-SW 202 17,0 C 20,5 C 5,5 km/h (1 Bft)
25.07.2013 07:35 20,4 C 83 % 1021,6 hPa 0,0 l/m 1,1 km/h (1 Bft) S-SW 202 17,4 C 21,1 C 1,8 km/h (1 Bft)
25.07.2013 07:40 20,6 C 79 % 1021,6 hPa 0,0 l/m 0,6 km/h (0 Bft) N 360 16,8 C 21,7 C 0,0 km/h (0 Bft)
25.07.2013 07:45 21,4 C 81 % 1021,8 hPa 0,0 l/m 0,5 km/h (0 Bft) O 90 18,0 C 22,4 C 1,6 km/h (1 Bft)
25.07.2013 07:50 22,0 C 80 % 1021,8 hPa 0,0 l/m 0,2 km/h (0 Bft) O 90 18,4 C 23,3 C 0,0 km/h (0 Bft)
25.07.2013 07:55 22,4 C 80 % 1021,8 hPa 0,0 l/m 0,2 km/h (0 Bft) O 90 18,8 C 23,8 C 0,0 km/h (0 Bft)
25.07.2013 08:00 22,8 C 81 % 1021,8 hPa 0,0 l/m 0,0 km/h (0 Bft) O 90 19,4 C 24,7 C 1,8 km/h (1 Bft)
25.07.2013 08:05 23,0 C 78 % 1021,3 hPa 0,0 l/m 0,2 km/h (0 Bft) NO 45 18,9 C 24,9 C 1,8 km/h (1 Bft)
25.07.2013 08:10 23,7 C 79 % 1021,3 hPa 0,0 l/m 0,5 km/h (0 Bft) N-NO 22 19,8 C 25,3 C 0,0 km/h (0 Bft)
25.07.2013 08:15 24,0 C 78 % 1021,3 hPa 0,0 l/m 0,5 km/h (0 Bft) NO 45 19,9 C 25,7 C 0,0 km/h (0 Bft)
25.07.2013 08:20 25,0 C 79 % 1021,3 hPa 0,0 l/m 0,0 km/h (0 Bft) W-SW 247 21,1 C 26,1 C 0,0 km/h (0 Bft)
25.07.2013 08:25 25,2 C 78 % 1022,0 hPa 0,0 l/m 0,2 km/h (0 Bft) SO 135 21,1 C 26,3 C 0,0 km/h (0 Bft)
25.07.2013 08:30 25,1 C 77 % 1022,0 hPa 0,0 l/m 0,5 km/h (0 Bft) SO 135 20,8 C 26,7 C 1,9 km/h (1 Bft)
25.07.2013 08:35 25,3 C 76 % 1022,0 hPa 0,0 l/m 0,5 km/h (0 Bft) NO 45 20,8 C 26,9 C 1,6 km/h (1 Bft)
25.07.2013 08:40 25,5 C 75 % 1022,0 hPa 0,0 l/m 0,6 km/h (0 Bft) NO 45 20,7 C 26,9 C 0,0 km/h (0 Bft)
25.07.2013 08:45 25,7 C 77 % 1022,1 hPa 0,0 l/m 0,3 km/h (0 Bft) N-NO 22 21,4 C 27,2 C 0,0 km/h (0 Bft)
25.07.2013 08:50 26,1 C 73 % 1022,1 hPa 0,0 l/m 0,3 km/h (0 Bft) N 360 20,9 C 27,5 C 0,0 km/h (0 Bft)
25.07.2013 08:55 26,4 C 70 % 1022,1 hPa 0,0 l/m 0,3 km/h (0 Bft) W-SW 247 20,5 C 27,8 C 0,0 km/h (0 Bft)
25.07.2013 09:00 27,1 C 70 % 1022,1 hPa 0,0 l/m 0,0 km/h (0 Bft) W-SW 247 21,1 C 28,5 C 0,0 km/h (0 Bft)
25.07.2013 09:05 27,5 C 69 % 1022,1 hPa 0,0 l/m 0,0 km/h (0 Bft) O 90 21,3 C 29,0 C 0,0 km/h (0 Bft)
25.07.2013 09:10 28,0 C 64 % 1022,1 hPa 0,0 l/m 0,0 km/h (0 Bft) N-NO 22 20,5 C 29,5 C 0,0 km/h (0 Bft)
25.07.2013 09:15 27,8 C 60 % 1022,1 hPa 0,0 l/m 0,0 km/h (0 Bft) O 90 19,3 C 29,8 C 0,0 km/h (0 Bft)
25.07.2013 09:20 27,5 C 57 % 1022,1 hPa 0,0 l/m 0,2 km/h (0 Bft) N-NO 22 18,2 C 30,0 C 1,8 km/h (1 Bft)
25.07.2013 09:25 27,2 C 49 % 1022,2 hPa 0,0 l/m 0,3 km/h (0 Bft) S-SW 202 15,5 C 29,8 C 1,6 km/h (1 Bft)
25.07.2013 09:30 28,0 C 51 % 1022,2 hPa 0,0 l/m 0,8 km/h (0 Bft) SW 225 16,9 C 29,9 C 2,4 km/h (1 Bft)
25.07.2013 09:35 29,1 C 49 % 1022,2 hPa 0,0 l/m 1,3 km/h (1 Bft) S-SW 202 17,3 C 29,7 C 2,3 km/h (1 Bft)
25.07.2013 09:40 27,7 C 48 % 1022,2 hPa 0,0 l/m 1,4 km/h (1 Bft) N-NW 337 15,7 C 29,6 C 1,8 km/h (1 Bft)
25.07.2013 09:45 28,7 C 48 % 1022,4 hPa 0,0 l/m 1,1 km/h (1 Bft) S-SW 202 16,6 C 29,7 C 0,0 km/h (0 Bft)
25.07.2013 09:50 27,3 C 47 % 1022,4 hPa 0,0 l/m 1,3 km/h (1 Bft) O 90 15,0 C 29,5 C 2,4 km/h (1 Bft)
25.07.2013 09:55 28,0 C 47 % 1022,4 hPa 0,0 l/m 1,6 km/h (1 Bft) NO 45 15,6 C 29,3 C 0,0 km/h (0 Bft)
25.07.2013 10:00 28,5 C 47 % 1022,4 hPa 0,0 l/m 1,6 km/h (1 Bft) W 270 16,1 C 29,6 C 1,9 km/h (1 Bft)
25.07.2013 10:05 28,3 C 47 % 1022,3 hPa 0,0 l/m 1,3 km/h (1 Bft) N 360 15,9 C 29,5 C 0,0 km/h (0 Bft)
25.07.2013 10:10 28,8 C 45 % 1022,3 hPa 0,0 l/m 1,6 km/h (1 Bft) W-SW 247 15,7 C 29,8 C 3,1 km/h (1 Bft)
25.07.2013 10:15 29,1 C 45 % 1022,3 hPa 0,0 l/m 1,8 km/h (1 Bft) SO 135 15,9 C 29,8 C 0,0 km/h (0 Bft)
25.07.2013 10:20 28,3 C 41 % 1022,3 hPa 0,0 l/m 2,1 km/h (1 Bft) W-SW 247 13,8 C 30,0 C 2,6 km/h (1 Bft)
25.07.2013 10:25 28,0 C 43 % 1022,8 hPa 0,0 l/m 2,1 km/h (1 Bft) W 270 14,2 C 29,6 C 4,3 km/h (1 Bft)
25.07.2013 10:30 28,6 C 43 % 1022,8 hPa 0,0 l/m 2,3 km/h (1 Bft) W-SW 247 14,8 C 29,6 C 2,1 km/h (1 Bft)
25.07.2013 10:35 27,5 C 44 % 1022,8 hPa 0,0 l/m 1,4 km/h (1 Bft) S-SW 202 14,1 C 30,1 C 0,0 km/h (0 Bft)
25.07.2013 10:40 28,7 C 44 % 1022,8 hPa 0,0 l/m 1,4 km/h (1 Bft) S-SW 202 15,2 C 30,6 C 4,0 km/h (1 Bft)
25.07.2013 10:45 29,2 C 41 % 1023,0 hPa 0,0 l/m 1,9 km/h (1 Bft) S 180 14,6 C 30,5 C 3,7 km/h (1 Bft)
25.07.2013 10:50 29,0 C 39 % 1023,0 hPa 0,0 l/m 2,9 km/h (1 Bft) S-SW 202 13,6 C 30,3 C 5,6 km/h (1 Bft)
25.07.2013 10:55 28,4 C 39 % 1023,0 hPa 0,0 l/m 2,3 km/h (1 Bft) N-NO 22 13,1 C 30,4 C 0,0 km/h (0 Bft)
25.07.2013 11:00 27,8 C 42 % 1023,0 hPa 0,0 l/m 2,4 km/h (1 Bft) SW 225 13,7 C 30,3 C 9,3 km/h (2 Bft)
25.07.2013 11:05 28,5 C 40 % 1023,2 hPa 0,0 l/m 2,4 km/h (1 Bft) S 180 13,6 C 30,1 C 2,7 km/h (1 Bft)
25.07.2013 11:10 28,8 C 42 % 1023,2 hPa 0,0 l/m 2,4 km/h (1 Bft) W-SW 247 14,6 C 30,2 C 4,0 km/h (1 Bft)
25.07.2013 11:15 28,6 C 40 % 1023,2 hPa 0,0 l/m 3,7 km/h (1 Bft) S 180 13,7 C 29,8 C 2,4 km/h (1 Bft)
25.07.2013 11:20 28,9 C 41 % 1023,2 hPa 0,0 l/m 4,0 km/h (1 Bft) W-NW 292 14,3 C 29,8 C 10,1 km/h (2 Bft)
25.07.2013 11:25 29,7 C 40 % 1023,2 hPa 0,0 l/m 2,9 km/h (1 Bft) S-SW 202 14,6 C 30,2 C 6,1 km/h (2 Bft)
25.07.2013 11:30 30,2 C 38 % 1023,2 hPa 0,0 l/m 3,7 km/h (1 Bft) SO 135 14,3 C 30,2 C 6,6 km/h (2 Bft)
25.07.2013 11:35 29,8 C 38 % 1023,2 hPa 0,0 l/m 4,2 km/h (1 Bft) W 270 13,9 C 30,2 C 6,1 km/h (2 Bft)
25.07.2013 11:40 30,0 C 39 % 1023,2 hPa 0,0 l/m 3,9 km/h (1 Bft) W-NW 292 14,5 C 30,0 C 4,2 km/h (1 Bft)
25.07.2013 11:45 28,7 C 40 % 1023,2 hPa 0,0 l/m 4,2 km/h (1 Bft) W 270 13,7 C 29,5 C 11,1 km/h (2 Bft)
25.07.2013 11:50 29,9 C 40 % 1023,2 hPa 0,0 l/m 3,7 km/h (1 Bft) W-NW 292 14,8 C 28,9 C 0,0 km/h (0 Bft)
25.07.2013 11:55 30,4 C 39 % 1023,2 hPa 0,0 l/m 3,7 km/h (1 Bft) S-SW 202 14,9 C 29,3 C 2,9 km/h (1 Bft)
25.07.2013 12:00 30,2 C 40 % 1023,2 hPa 0,0 l/m 3,9 km/h (1 Bft) W-NW 292 15,1 C 29,6 C 6,9 km/h (2 Bft)
25.07.2013 12:05 30,0 C 39 % 1023,2 hPa 0,0 l/m 4,3 km/h (1 Bft) NW 315 14,5 C 29,8 C 5,1 km/h (1 Bft)
25.07.2013 12:10 29,5 C 40 % 1023,2 hPa 0,0 l/m 4,2 km/h (1 Bft) SW 225 14,5 C 29,8 C 3,4 km/h (1 Bft)
25.07.2013 12:15 30,0 C 39 % 1023,2 hPa 0,0 l/m 4,3 km/h (1 Bft) NW 315 14,5 C 29,9 C 2,9 km/h (1 Bft)
25.07.2013 12:20 30,1 C 38 % 1023,2 hPa 0,0 l/m 2,9 km/h (1 Bft) S 180 14,2 C 30,6 C 1,8 km/h (1 Bft)
25.07.2013 12:25 29,1 C 39 % 1023,4 hPa 0,0 l/m 2,7 km/h (1 Bft) W-SW 247 13,7 C 31,0 C 4,2 km/h (1 Bft)
25.07.2013 12:30 28,6 C 39 % 1023,4 hPa 0,0 l/m 4,0 km/h (1 Bft) S 180 13,3 C 30,4 C 6,3 km/h (2 Bft)
25.07.2013 12:35 29,2 C 40 % 1023,4 hPa 0,0 l/m 3,7 km/h (1 Bft) W-SW 247 14,2 C 30,1 C 4,8 km/h (1 Bft)
25.07.2013 12:40 29,6 C 38 % 1023,4 hPa 0,0 l/m 2,3 km/h (1 Bft) S-SW 202 13,8 C 31,3 C 1,9 km/h (1 Bft)
25.07.2013 12:45 29,9 C 38 % 1023,2 hPa 0,0 l/m 2,1 km/h (1 Bft) S 180 14,0 C 31,8 C 1,9 km/h (1 Bft)
25.07.2013 12:50 29,7 C 37 % 1023,2 hPa 0,0 l/m 3,1 km/h (1 Bft) S-SW 202 13,4 C 31,9 C 4,3 km/h (1 Bft)
25.07.2013 12:55 30,1 C 38 % 1023,2 hPa 0,0 l/m 4,0 km/h (1 Bft) S 180 14,2 C 31,7 C 6,6 km/h (2 Bft)
25.07.2013 13:00 30,1 C 38 % 1023,2 hPa 0,0 l/m 3,9 km/h (1 Bft) S 180 14,2 C 31,8 C 3,1 km/h (1 Bft)
25.07.2013 13:05 30,2 C 38 % 1023,1 hPa 0,0 l/m 4,3 km/h (1 Bft) S 180 14,3 C 31,6 C 4,8 km/h (1 Bft)
25.07.2013 13:10 29,8 C 37 % 1023,1 hPa 0,0 l/m 3,7 km/h (1 Bft) W 270 13,5 C 32,1 C 2,6 km/h (1 Bft)
25.07.2013 13:15 29,6 C 37 % 1023,1 hPa 0,0 l/m 3,7 km/h (1 Bft) W-NW 292 13,3 C 31,9 C 5,0 km/h (1 Bft)
25.07.2013 13:20 30,0 C 38 % 1023,1 hPa 0,0 l/m 4,0 km/h (1 Bft) O-NO 67 14,1 C 31,9 C 2,1 km/h (1 Bft)
25.07.2013 13:25 29,4 C 38 % 1023,2 hPa 0,0 l/m 2,9 km/h (1 Bft) W-SW 247 13,6 C 32,2 C 0,0 km/h (0 Bft)
25.07.2013 13:30 29,7 C 36 % 1023,2 hPa 0,0 l/m 3,4 km/h (1 Bft) S-SW 202 13,0 C 32,1 C 4,5 km/h (1 Bft)
25.07.2013 13:35 30,0 C 38 % 1023,2 hPa 0,0 l/m 4,3 km/h (1 Bft) S-SW 202 14,1 C 32,1 C 4,0 km/h (1 Bft)
25.07.2013 13:40 30,3 C 36 % 1023,2 hPa 0,0 l/m 5,8 km/h (2 Bft) S-SW 202 13,5 C 32,0 C 12,2 km/h (2 Bft)
25.07.2013 13:45 30,0 C 36 % 1023,1 hPa 0,0 l/m 5,6 km/h (1 Bft) NO 45 13,3 C 31,8 C 2,6 km/h (1 Bft)
25.07.2013 13:50 30,1 C 39 % 1023,1 hPa 0,0 l/m 5,1 km/h (1 Bft) W-SW 247 14,6 C 31,9 C 7,1 km/h (2 Bft)
25.07.2013 13:55 30,3 C 38 % 1023,1 hPa 0,0 l/m 5,3 km/h (1 Bft) S 180 14,4 C 31,9 C 6,4 km/h (2 Bft)
25.07.2013 14:00 30,6 C 37 % 1023,1 hPa 0,0 l/m 5,3 km/h (1 Bft) S-SW 202 14,2 C 32,1 C 5,6 km/h (1 Bft)
25.07.2013 14:05 30,1 C 37 % 1023,1 hPa 0,0 l/m 4,8 km/h (1 Bft) N 360 13,8 C 32,4 C 2,6 km/h (1 Bft)
25.07.2013 14:10 29,9 C 37 % 1023,1 hPa 0,0 l/m 4,2 km/h (1 Bft) S-SO 157 13,6 C 32,4 C 10,9 km/h (2 Bft)
25.07.2013 14:15 30,7 C 36 % 1023,1 hPa 0,0 l/m 4,0 km/h (1 Bft) S-SW 202 13,9 C 32,3 C 6,1 km/h (2 Bft)
25.07.2013 14:20 31,5 C 35 % 1023,1 hPa 0,0 l/m 4,7 km/h (1 Bft) W-SW 247 14,2 C 33,2 C 13,0 km/h (3 Bft)
25.07.2013 14:25 29,6 C 36 % 1023,0 hPa 0,0 l/m 4,8 km/h (1 Bft) S-SW 202 12,9 C 33,0 C 8,2 km/h (2 Bft)
25.07.2013 14:30 28,2 C 40 % 1023,0 hPa 0,0 l/m 5,5 km/h (1 Bft) S 180 13,3 C 31,0 C 3,4 km/h (1 Bft)
25.07.2013 14:35 27,7 C 42 % 1023,0 hPa 0,0 l/m 5,3 km/h (1 Bft) S-SO 157 13,6 C 30,0 C 4,8 km/h (1 Bft)
25.07.2013 14:40 27,5 C 43 % 1023,0 hPa 0,0 l/m 4,8 km/h (1 Bft) SO 135 13,8 C 29,2 C 6,1 km/h (2 Bft)
25.07.2013 14:45 27,2 C 45 % 1022,9 hPa 0,0 l/m 5,5 km/h (1 Bft) SW 225 14,2 C 28,8 C 7,9 km/h (2 Bft)
25.07.2013 14:50 27,0 C 47 % 1022,9 hPa 0,0 l/m 4,5 km/h (1 Bft) S-SO 157 14,7 C 28,3 C 6,4 km/h (2 Bft)
25.07.2013 14:55 26,7 C 47 % 1022,9 hPa 0,0 l/m 4,3 km/h (1 Bft) S-SW 202 14,4 C 28,2 C 5,1 km/h (1 Bft)
25.07.2013 15:00 26,7 C 46 % 1022,9 hPa 0,0 l/m 4,2 km/h (1 Bft) W-SW 247 14,1 C 27,9 C 3,7 km/h (1 Bft)
25.07.2013 15:05 27,8 C 46 % 1022,8 hPa 0,0 l/m 3,5 km/h (1 Bft) W-SW 247 15,1 C 28,3 C 2,3 km/h (1 Bft)
25.07.2013 15:10 27,7 C 47 % 1022,8 hPa 0,0 l/m 3,5 km/h (1 Bft) W-SW 247 15,3 C 29,4 C 6,9 km/h (2 Bft)
25.07.2013 15:15 28,4 C 43 % 1022,8 hPa 0,0 l/m 4,3 km/h (1 Bft) W-SW 247 14,6 C 29,4 C 5,8 km/h (2 Bft)
25.07.2013 15:20 27,9 C 43 % 1022,8 hPa 0,0 l/m 5,3 km/h (1 Bft) S 180 14,1 C 29,9 C 5,8 km/h (2 Bft)
25.07.2013 15:25 26,9 C 44 % 1022,8 hPa 0,0 l/m 4,7 km/h (1 Bft) S-SW 202 13,6 C 29,3 C 3,1 km/h (1 Bft)
25.07.2013 15:30 26,9 C 47 % 1022,8 hPa 0,0 l/m 3,5 km/h (1 Bft) S-SW 202 14,6 C 28,6 C 3,7 km/h (1 Bft)
25.07.2013 15:35 27,2 C 47 % 1022,8 hPa 0,0 l/m 3,1 km/h (1 Bft) S 180 14,9 C 28,7 C 6,4 km/h (2 Bft)
25.07.2013 15:40 28,8 C 45 % 1022,8 hPa 0,0 l/m 4,3 km/h (1 Bft) W-SW 247 15,7 C 29,1 C 5,1 km/h (1 Bft)
25.07.2013 15:45 30,0 C 39 % 1022,4 hPa 0,0 l/m 5,3 km/h (1 Bft) S-SW 202 14,5 C 30,2 C 5,8 km/h (2 Bft)
25.07.2013 15:50 30,1 C 38 % 1022,4 hPa 0,0 l/m 5,1 km/h (1 Bft) SW 225 14,2 C 31,8 C 4,8 km/h (1 Bft)
25.07.2013 15:55 30,4 C 38 % 1022,4 hPa 0,0 l/m 4,5 km/h (1 Bft) W 270 14,5 C 32,7 C 6,4 km/h (2 Bft)
25.07.2013 16:00 28,8 C 40 % 1022,4 hPa 0,0 l/m 4,2 km/h (1 Bft) W 270 13,8 C 32,3 C 3,1 km/h (1 Bft)
25.07.2013 16:05 28,1 C 42 % 1022,7 hPa 0,0 l/m 5,5 km/h (1 Bft) W 270 14,0 C 31,2 C 5,8 km/h (2 Bft)
25.07.2013 16:10 27,5 C 43 % 1022,7 hPa 0,0 l/m 4,8 km/h (1 Bft) W-SW 247 13,8 C 29,9 C 4,7 km/h (1 Bft)
25.07.2013 16:15 27,8 C 45 % 1022,7 hPa 0,0 l/m 3,9 km/h (1 Bft) W 270 14,8 C 29,6 C 6,9 km/h (2 Bft)
25.07.2013 16:20 29,5 C 42 % 1022,7 hPa 0,0 l/m 4,0 km/h (1 Bft) S 180 15,2 C 30,6 C 3,4 km/h (1 Bft)
25.07.2013 16:25 29,6 C 38 % 1022,6 hPa 0,0 l/m 4,3 km/h (1 Bft) SW 225 13,8 C 31,6 C 1,9 km/h (1 Bft)
25.07.2013 16:30 29,2 C 39 % 1022,6 hPa 0,0 l/m 2,9 km/h (1 Bft) S-SW 202 13,8 C 33,0 C 1,8 km/h (1 Bft)
25.07.2013 16:35 29,6 C 41 % 1022,6 hPa 0,0 l/m 2,6 km/h (1 Bft) S-SW 202 14,9 C 33,8 C 6,9 km/h (2 Bft)
25.07.2013 16:40 29,0 C 40 % 1022,6 hPa 0,0 l/m 2,7 km/h (1 Bft) S 180 14,0 C 33,9 C 2,3 km/h (1 Bft)
25.07.2013 16:45 29,2 C 42 % 1022,5 hPa 0,0 l/m 3,1 km/h (1 Bft) S-SW 202 14,9 C 33,7 C 3,5 km/h (1 Bft)
25.07.2013 16:50 28,5 C 42 % 1022,5 hPa 0,0 l/m 3,2 km/h (1 Bft) S-SO 157 14,3 C 34,1 C 2,3 km/h (1 Bft)
25.07.2013 16:55 27,7 C 44 % 1022,5 hPa 0,0 l/m 2,3 km/h (1 Bft) O-NO 67 14,3 C 33,2 C 0,0 km/h (0 Bft)
25.07.2013 17:00 27,4 C 47 % 1022,5 hPa 0,0 l/m 1,9 km/h (1 Bft) N 360 15,1 C 31,8 C 7,9 km/h (2 Bft)
25.07.2013 17:05 27,7 C 45 % 1022,2 hPa 0,0 l/m 2,9 km/h (1 Bft) W-SW 247 14,7 C 31,2 C 3,5 km/h (1 Bft)
25.07.2013 17:10 27,0 C 45 % 1022,2 hPa 0,0 l/m 5,1 km/h (1 Bft) S-SW 202 14,0 C 30,2 C 5,6 km/h (1 Bft)
25.07.2013 17:15 26,5 C 47 % 1022,2 hPa 0,0 l/m 5,3 km/h (1 Bft) W-NW 292 14,3 C 29,2 C 5,6 km/h (1 Bft)
25.07.2013 17:20 26,9 C 48 % 1022,2 hPa 0,0 l/m 4,0 km/h (1 Bft) S-SW 202 14,9 C 29,9 C 0,0 km/h (0 Bft)
25.07.2013 17:25 26,9 C 49 % 1022,2 hPa 0,0 l/m 3,2 km/h (1 Bft) W-NW 292 15,3 C 30,8 C 7,6 km/h (2 Bft)
25.07.2013 17:30 26,5 C 47 % 1022,2 hPa 0,0 l/m 4,2 km/h (1 Bft) N-NW 337 14,3 C 31,2 C 6,1 km/h (2 Bft)
25.07.2013 17:35 26,7 C 49 % 1022,2 hPa 0,0 l/m 4,3 km/h (1 Bft) N-NW 337 15,1 C 31,1 C 5,5 km/h (1 Bft)
25.07.2013 17:40 27,1 C 48 % 1022,2 hPa 0,0 l/m 3,4 km/h (1 Bft) W 270 15,1 C 31,9 C 2,6 km/h (1 Bft)
25.07.2013 17:45 26,9 C 48 % 1022,5 hPa 0,0 l/m 3,4 km/h (1 Bft) NW 315 14,9 C 32,5 C 4,7 km/h (1 Bft)
25.07.2013 17:50 26,1 C 49 % 1022,5 hPa 0,0 l/m 4,2 km/h (1 Bft) N-NW 337 14,5 C 32,4 C 5,0 km/h (1 Bft)
25.07.2013 17:55 26,0 C 50 % 1022,5 hPa 0,0 l/m 4,7 km/h (1 Bft) N-NW 337 14,8 C 32,0 C 2,6 km/h (1 Bft)
25.07.2013 18:00 25,7 C 49 % 1022,5 hPa 0,0 l/m 4,7 km/h (1 Bft) N-NW 337 14,2 C 31,4 C 9,3 km/h (2 Bft)
25.07.2013 18:05 25,7 C 52 % 1022,2 hPa 0,0 l/m 4,5 km/h (1 Bft) N 360 15,1 C 30,8 C 4,8 km/h (1 Bft)
25.07.2013 18:10 26,1 C 51 % 1022,2 hPa 0,0 l/m 4,3 km/h (1 Bft) NO 45 15,2 C 31,5 C 4,0 km/h (1 Bft)
25.07.2013 18:15 26,1 C 50 % 1022,2 hPa 0,0 l/m 3,7 km/h (1 Bft) W-NW 292 14,8 C 31,9 C 3,9 km/h (1 Bft)
25.07.2013 18:20 26,2 C 50 % 1022,2 hPa 0,0 l/m 3,2 km/h (1 Bft) N-NW 337 14,9 C 32,6 C 7,7 km/h (2 Bft)
25.07.2013 18:25 26,1 C 50 % 1022,4 hPa 0,0 l/m 3,5 km/h (1 Bft) N-NW 337 14,8 C 32,4 C 4,0 km/h (1 Bft)
25.07.2013 18:30 26,3 C 50 % 1022,4 hPa 0,0 l/m 3,7 km/h (1 Bft) S-SW 202 15,0 C 32,6 C 2,7 km/h (1 Bft)
25.07.2013 18:35 25,8 C 51 % 1022,4 hPa 0,0 l/m 3,2 km/h (1 Bft) N 360 14,9 C 32,4 C 1,9 km/h (1 Bft)
25.07.2013 18:40 25,6 C 51 % 1022,4 hPa 0,0 l/m 2,4 km/h (1 Bft) W-NW 292 14,7 C 32,3 C 4,0 km/h (1 Bft)
25.07.2013 18:45 25,7 C 50 % 1022,1 hPa 0,0 l/m 2,3 km/h (1 Bft) O-SO 112 14,5 C 32,2 C 1,8 km/h (1 Bft)
25.07.2013 18:50 25,5 C 52 % 1022,1 hPa 0,0 l/m 2,9 km/h (1 Bft) S-SO 157 14,9 C 32,1 C 2,3 km/h (1 Bft)
25.07.2013 18:55 25,3 C 53 % 1022,1 hPa 0,0 l/m 2,4 km/h (1 Bft) N-NW 337 15,0 C 31,4 C 4,5 km/h (1 Bft)
25.07.2013 19:00 24,6 C 55 % 1022,1 hPa 0,0 l/m 1,8 km/h (1 Bft) O-NO 67 14,9 C 30,0 C 2,3 km/h (1 Bft)
25.07.2013 19:05 24,3 C 55 % 1021,4 hPa 0,0 l/m 1,9 km/h (1 Bft) N-NO 22 14,7 C 28,8 C 1,8 km/h (1 Bft)
25.07.2013 19:10 23,8 C 56 % 1021,4 hPa 0,0 l/m 1,6 km/h (1 Bft) NO 45 14,5 C 27,1 C 2,3 km/h (1 Bft)
25.07.2013 19:15 23,7 C 58 % 1021,4 hPa 0,0 l/m 2,6 km/h (1 Bft) N 360 14,9 C 26,7 C 7,7 km/h (2 Bft)
25.07.2013 19:20 23,6 C 57 % 1021,4 hPa 0,0 l/m 3,1 km/h (1 Bft) O 90 14,6 C 26,0 C 0,0 km/h (0 Bft)
25.07.2013 19:25 23,6 C 57 % 1021,4 hPa 0,0 l/m 1,9 km/h (1 Bft) NO 45 14,6 C 25,7 C 0,0 km/h (0 Bft)
25.07.2013 19:30 23,2 C 59 % 1021,4 hPa 0,0 l/m 1,0 km/h (0 Bft) NO 45 14,7 C 25,3 C 2,4 km/h (1 Bft)
25.07.2013 19:35 23,1 C 59 % 1021,4 hPa 0,0 l/m 1,1 km/h (1 Bft) NO 45 14,6 C 25,0 C 0,0 km/h (0 Bft)
25.07.2013 19:40 23,2 C 59 % 1021,4 hPa 0,0 l/m 0,5 km/h (0 Bft) NO 45 14,7 C 24,9 C 0,0 km/h (0 Bft)
25.07.2013 19:45 23,4 C 59 % 1021,7 hPa 0,0 l/m 0,0 km/h (0 Bft) O-NO 67 14,9 C 25,1 C 0,0 km/h (0 Bft)
25.07.2013 19:50 23,8 C 59 % 1021,7 hPa 0,0 l/m 0,0 km/h (0 Bft) SO 135 15,3 C 25,4 C 0,0 km/h (0 Bft)
25.07.2013 19:55 23,9 C 59 % 1021,7 hPa 0,0 l/m 0,0 km/h (0 Bft) SO 135 15,4 C 25,6 C 0,0 km/h (0 Bft)
25.07.2013 20:00 23,6 C 60 % 1021,7 hPa 0,0 l/m 0,3 km/h (0 Bft) O 90 15,4 C 25,5 C 1,9 km/h (1 Bft)
25.07.2013 20:05 23,5 C 60 % 1021,7 hPa 0,0 l/m 0,5 km/h (0 Bft) NO 45 15,3 C 25,5 C 0,0 km/h (0 Bft)
25.07.2013 20:10 23,5 C 61 % 1021,7 hPa 0,0 l/m 0,6 km/h (0 Bft) NO 45 15,5 C 26,3 C 1,9 km/h (1 Bft)
25.07.2013 20:15 23,7 C 60 % 1021,7 hPa 0,0 l/m 0,5 km/h (0 Bft) O-NO 67 15,5 C 27,0 C 0,0 km/h (0 Bft)
25.07.2013 20:20 23,3 C 60 % 1021,7 hPa 0,0 l/m 0,5 km/h (0 Bft) NO 45 15,1 C 27,0 C 2,9 km/h (1 Bft)
25.07.2013 20:25 23,3 C 59 % 1021,8 hPa 0,0 l/m 0,8 km/h (0 Bft) O-SO 112 14,8 C 26,3 C 0,0 km/h (0 Bft)
25.07.2013 20:30 23,0 C 60 % 1021,8 hPa 0,0 l/m 1,0 km/h (0 Bft) NO 45 14,8 C 25,3 C 1,8 km/h (1 Bft)
25.07.2013 20:35 22,7 C 62 % 1021,8 hPa 0,0 l/m 0,6 km/h (0 Bft) O 90 15,0 C 24,7 C 0,0 km/h (0 Bft)
25.07.2013 20:40 22,2 C 62 % 1021,8 hPa 0,0 l/m 0,6 km/h (0 Bft) NO 45 14,6 C 23,8 C 0,0 km/h (0 Bft)
25.07.2013 20:45 21,8 C 64 % 1021,8 hPa 0,0 l/m 0,3 km/h (0 Bft) O 90 14,7 C 23,7 C 0,0 km/h (0 Bft)
25.07.2013 20:50 21,5 C 67 % 1021,8 hPa 0,0 l/m 1,1 km/h (1 Bft) O 90 15,1 C 23,0 C 2,6 km/h (1 Bft)
25.07.2013 20:55 21,2 C 68 % 1021,8 hPa 0,0 l/m 2,1 km/h (1 Bft) O-NO 67 15,1 C 22,6 C 4,5 km/h (1 Bft)
25.07.2013 21:00 21,2 C 68 % 1021,8 hPa 0,0 l/m 3,4 km/h (1 Bft) O-NO 67 15,1 C 21,9 C 4,2 km/h (1 Bft)
25.07.2013 21:05 21,2 C 68 % 1021,8 hPa 0,0 l/m 3,5 km/h (1 Bft) O-NO 67 15,1 C 21,6 C 4,0 km/h (1 Bft)
25.07.2013 21:10 21,3 C 67 % 1021,8 hPa 0,0 l/m 3,7 km/h (1 Bft) NO 45 14,9 C 21,3 C 4,0 km/h (1 Bft)
25.07.2013 21:15 21,1 C 67 % 1021,8 hPa 0,0 l/m 3,2 km/h (1 Bft) O-SO 112 14,7 C 21,3 C 1,8 km/h (1 Bft)
25.07.2013 21:20 20,7 C 71 % 1021,8 hPa 0,0 l/m 1,8 km/h (1 Bft) O 90 15,2 C 21,0 C 2,3 km/h (1 Bft)
25.07.2013 21:25 20,5 C 71 % 1021,9 hPa 0,0 l/m 1,3 km/h (1 Bft) O 90 15,1 C 20,7 C 1,9 km/h (1 Bft)
25.07.2013 21:30 20,4 C 72 % 1021,9 hPa 0,0 l/m 1,6 km/h (1 Bft) O-NO 67 15,2 C 20,4 C 2,6 km/h (1 Bft)
25.07.2013 21:35 20,5 C 72 % 1021,9 hPa 0,0 l/m 2,3 km/h (1 Bft) NO 45 15,3 C 20,4 C 2,4 km/h (1 Bft)
25.07.2013 21:40 20,4 C 72 % 1021,9 hPa 0,0 l/m 3,1 km/h (1 Bft) O-NO 67 15,2 C 20,2 C 3,5 km/h (1 Bft)
25.07.2013 21:45 20,0 C 73 % 1022,1 hPa 0,0 l/m 3,4 km/h (1 Bft) N-NO 22 15,0 C 20,0 C 4,2 km/h (1 Bft)
25.07.2013 21:50 19,8 C 73 % 1022,1 hPa 0,0 l/m 3,1 km/h (1 Bft) O 90 14,8 C 19,6 C 2,7 km/h (1 Bft)
25.07.2013 21:55 19,5 C 73 % 1022,1 hPa 0,0 l/m 2,1 km/h (1 Bft) O-NO 67 14,5 C 19,4 C 1,9 km/h (1 Bft)
25.07.2013 22:00 19,5 C 74 % 1022,1 hPa 0,0 l/m 2,4 km/h (1 Bft) O 90 14,7 C 19,2 C 4,3 km/h (1 Bft)
25.07.2013 22:05 19,6 C 74 % 1022,3 hPa 0,0 l/m 3,2 km/h (1 Bft) O-NO 67 14,8 C 19,3 C 3,2 km/h (1 Bft)
25.07.2013 22:10 19,7 C 74 % 1022,3 hPa 0,0 l/m 3,1 km/h (1 Bft) O-SO 112 14,9 C 19,4 C 2,4 km/h (1 Bft)
25.07.2013 22:15 19,4 C 75 % 1022,3 hPa 0,0 l/m 2,4 km/h (1 Bft) O 90 14,8 C 19,3 C 2,6 km/h (1 Bft)
25.07.2013 22:20 19,4 C 77 % 1022,3 hPa 0,0 l/m 2,3 km/h (1 Bft) O-SO 112 15,3 C 19,2 C 2,9 km/h (1 Bft)
25.07.2013 22:25 19,4 C 77 % 1022,1 hPa 0,0 l/m 2,7 km/h (1 Bft) O 90 15,3 C 19,1 C 3,5 km/h (1 Bft)
25.07.2013 22:30 19,3 C 76 % 1022,1 hPa 0,0 l/m 2,4 km/h (1 Bft) O-NO 67 15,0 C 19,1 C 2,4 km/h (1 Bft)
25.07.2013 22:35 19,1 C 76 % 1022,1 hPa 0,0 l/m 1,4 km/h (1 Bft) NO 45 14,8 C 19,0 C 0,0 km/h (0 Bft)
25.07.2013 22:40 19,1 C 77 % 1022,1 hPa 0,0 l/m 0,2 km/h (0 Bft) O 90 15,0 C 18,9 C 0,0 km/h (0 Bft)
25.07.2013 22:45 19,0 C 77 % 1022,2 hPa 0,0 l/m 0,0 km/h (0 Bft) O-NO 67 14,9 C 18,8 C 0,0 km/h (0 Bft)
25.07.2013 22:50 19,0 C 76 % 1022,2 hPa 0,0 l/m 0,0 km/h (0 Bft) O-NO 67 14,7 C 18,7 C 0,0 km/h (0 Bft)
25.07.2013 22:55 19,0 C 76 % 1022,2 hPa 0,0 l/m 0,0 km/h (0 Bft) O 90 14,7 C 18,8 C 0,0 km/h (0 Bft)
25.07.2013 23:00 19,0 C 76 % 1022,2 hPa 0,0 l/m 0,0 km/h (0 Bft) NO 45 14,7 C 19,0 C 0,0 km/h (0 Bft)
25.07.2013 23:05 18,9 C 77 % 1022,1 hPa 0,0 l/m 0,0 km/h (0 Bft) NO 45 14,8 C 18,9 C 0,0 km/h (0 Bft)
25.07.2013 23:10 18,9 C 76 % 1022,1 hPa 0,0 l/m 0,0 km/h (0 Bft) N-NO 22 14,6 C 18,9 C 0,0 km/h (0 Bft)
25.07.2013 23:15 18,9 C 76 % 1022,1 hPa 0,0 l/m 0,0 km/h (0 Bft) NO 45 14,6 C 18,9 C 0,0 km/h (0 Bft)
25.07.2013 23:20 18,8 C 76 % 1022,1 hPa 0,0 l/m 0,0 km/h (0 Bft) N-NO 22 14,5 C 18,8 C 0,0 km/h (0 Bft)
25.07.2013 23:25 18,6 C 76 % 1022,1 hPa 0,0 l/m 0,0 km/h (0 Bft) NO 45 14,3 C 18,7 C 0,0 km/h (0 Bft)
25.07.2013 23:30 18,6 C 76 % 1022,1 hPa 0,0 l/m 0,0 km/h (0 Bft) NO 45 14,3 C 18,6 C 0,0 km/h (0 Bft)
25.07.2013 23:35 18,8 C 76 % 1022,1 hPa 0,0 l/m 0,0 km/h (0 Bft) NO 45 14,5 C 18,6 C 0,0 km/h (0 Bft)
25.07.2013 23:40 18,7 C 76 % 1022,1 hPa 0,0 l/m 0,0 km/h (0 Bft) NO 45 14,4 C 18,5 C 0,0 km/h (0 Bft)
25.07.2013 23:45 18,6 C 76 % 1022,0 hPa 0,0 l/m 0,0 km/h (0 Bft) N-NO 22 14,3 C 18,5 C 0,0 km/h (0 Bft)
25.07.2013 23:50 18,2 C 76 % 1022,0 hPa 0,0 l/m 0,0 km/h (0 Bft) O-NO 67 13,9 C 18,3 C 0,0 km/h (0 Bft)
25.07.2013 23:55 18,2 C 76 % 1022,0 hPa 0,0 l/m 0,0 km/h (0 Bft) NO 45 13,9 C 18,1 C 0,0 km/h (0 Bft)
_ Min-Zeit 06:00 14:20 08:20 - 23:55 - - 06:00 05:10 23:55
Minimum _ 13,0 C 35 % 1021,3 hPa - 0,0 km/h (0 Bft) - - 12,2 C 12,9 C 0,0 km/h (0 Bft)
_ Max-Zeit 14:20 06:45 12:40 23:55 13:40 - - 08:45 16:50 14:20
Maximum _ 31,5 C 95 % 1023,4 hPa 0,0 l/m 5,8 km/h
S-SW (2 Bft)
- - 21,4 C 34,1 C 13,0 km/h
W-SW (3 Bft)
Durchschnitt _ 22,2 C 67 % 1022,2 hPa #0,0 l/m 1,8 km/h (1 Bft) S-SW - 14,7 C 23,5 C 2,3 km/h (1 Bft)